PWSweather.com
Personal Weather Stations
Station Observations
KFLSEBAS1
Sebastian Highlands, Sebastian, FL 32958-4362

Sebastian HighlandsSebastian, FL 32958-4362

Lat: 27.8, Lon: -80.48

Elevation: 23

Station Type: Davis Weather Monitor II

www.kflsebas1.com

High Low Average
Temperature 84.6°F29.2°C 76.4°F24.7°C 80.3°F26.8°C
Dew Point 81.0°F27.2°C 73.8°F23.2°C 76.3°F24.6°C
Winds 8.0 mph 12.9 kmh Calm Calm Calm ECalm E
Wind Gusts 12.0 mph19.3 kmh -- 4.0 mph6.4 kmh
Humidity 98% 77% 88%
Pressure 30.07 in1018.3 mb 29.97 in1014.9 mb -
Precipitation 0.00 in0.0 mm - -
Hour Temp Dew Point Humidity Winds Wind Gusts Pressure Precip Precip Rate Daily Precip Total
12:00 AM 81.5°F27.5°C 76.6°F24.8°C 85% 6.0 mph ESE9.7 kmh ESE 6.0 mph9.7 kmh 30.02 in1016.6 mb 0.00 in0.0 mm 0.00 in0.0 mm 0.00 in0.0 mm
12:05 AM 81.4°F27.4°C 76.5°F24.7°C 85% Calm Calm 7.0 mph11.3 kmh 30.02 in1016.6 mb 0.00 in0.0 mm 0.00 in0.0 mm 0.00 in0.0 mm
12:10 AM 81.4°F27.4°C 76.1°F24.5°C 84% Calm Calm 8.0 mph12.9 kmh 30.02 in1016.6 mb 0.00 in0.0 mm 0.00 in0.0 mm 0.00 in0.0 mm
12:15 AM 81.3°F27.4°C 76.0°F24.4°C 84% 4.0 mph ESE6.4 kmh ESE 8.0 mph12.9 kmh 30.02 in1016.6 mb 0.00 in0.0 mm 0.00 in0.0 mm 0.00 in0.0 mm
12:20 AM 81.3°F27.4°C 76.4°F24.7°C 85% Calm Calm 8.0 mph12.9 kmh 30.03 in1016.9 mb 0.00 in0.0 mm 0.00 in0.0 mm 0.00 in0.0 mm
12:25 AM 81.3°F27.4°C 76.4°F24.7°C 85% Calm Calm 8.0 mph12.9 kmh 30.03 in1016.9 mb 0.00 in0.0 mm 0.00 in0.0 mm 0.00 in0.0 mm
12:30 AM 81.3°F27.4°C 76.4°F24.7°C 85% Calm Calm 8.0 mph12.9 kmh 30.03 in1016.9 mb 0.00 in0.0 mm 0.00 in0.0 mm 0.00 in0.0 mm
12:35 AM 81.3°F27.4°C 76.0°F24.4°C 84% Calm Calm 8.0 mph12.9 kmh 30.02 in1016.6 mb 0.00 in0.0 mm 0.00 in0.0 mm 0.00 in0.0 mm
12:40 AM 81.3°F27.4°C 76.0°F24.4°C 84% Calm Calm 8.0 mph12.9 kmh 30.02 in1016.6 mb 0.00 in0.0 mm 0.00 in0.0 mm 0.00 in0.0 mm
12:45 AM 81.3°F27.4°C 76.0°F24.4°C 84% Calm Calm 8.0 mph12.9 kmh 30.02 in1016.6 mb 0.00 in0.0 mm 0.00 in0.0 mm 0.00 in0.0 mm
12:50 AM 81.4°F27.4°C 76.5°F24.7°C 85% Calm Calm 8.0 mph12.9 kmh 30.02 in1016.6 mb 0.00 in0.0 mm 0.00 in0.0 mm 0.00 in0.0 mm
12:55 AM 81.4°F27.4°C 76.5°F24.7°C 85% Calm Calm 8.0 mph12.9 kmh 30.02 in1016.6 mb 0.00 in0.0 mm 0.00 in0.0 mm 0.00 in0.0 mm
01:00 AM 81.5°F27.5°C 76.6°F24.8°C 85% Calm Calm -- 30.01 in1016.3 mb 0.00 in0.0 mm 0.00 in0.0 mm 0.00 in0.0 mm
01:05 AM 81.4°F27.4°C 76.5°F24.7°C 85% Calm Calm 6.0 mph9.7 kmh 30.01 in1016.3 mb 0.00 in0.0 mm 0.00 in0.0 mm 0.00 in0.0 mm
01:10 AM 81.4°F27.4°C 76.5°F24.7°C 85% Calm Calm 6.0 mph9.7 kmh 30.01 in1016.3 mb 0.00 in0.0 mm 0.00 in0.0 mm 0.00 in0.0 mm
01:15 AM 81.4°F27.4°C 76.5°F24.7°C 85% Calm Calm 6.0 mph9.7 kmh 30.01 in1016.3 mb 0.00 in0.0 mm 0.00 in0.0 mm 0.00 in0.0 mm
01:20 AM 81.4°F27.4°C 76.5°F24.7°C 85% Calm Calm 6.0 mph9.7 kmh 30.01 in1016.3 mb 0.00 in0.0 mm 0.00 in0.0 mm 0.00 in0.0 mm
01:25 AM 81.3°F27.4°C 76.7°F24.8°C 86% Calm Calm 6.0 mph9.7 kmh 30.02 in1016.6 mb 0.00 in0.0 mm 0.00 in0.0 mm 0.00 in0.0 mm
01:30 AM 81.3°F27.4°C 76.7°F24.8°C 86% Calm Calm 6.0 mph9.7 kmh 30.01 in1016.3 mb 0.00 in0.0 mm 0.00 in0.0 mm 0.00 in0.0 mm
01:35 AM 81.3°F27.4°C 76.7°F24.8°C 86% Calm Calm 6.0 mph9.7 kmh 30.02 in1016.6 mb 0.00 in0.0 mm 0.00 in0.0 mm 0.00 in0.0 mm
01:40 AM 81.2°F27.3°C 76.6°F24.8°C 86% Calm Calm 6.0 mph9.7 kmh 30.01 in1016.3 mb 0.00 in0.0 mm 0.00 in0.0 mm 0.00 in0.0 mm
01:45 AM 81.3°F27.4°C 76.7°F24.8°C 86% Calm Calm 6.0 mph9.7 kmh 30.01 in1016.3 mb 0.00 in0.0 mm 0.00 in0.0 mm 0.00 in0.0 mm
01:50 AM 81.2°F27.3°C 76.6°F24.8°C 86% Calm Calm 6.0 mph9.7 kmh 30.01 in1016.3 mb 0.00 in0.0 mm 0.00 in0.0 mm 0.00 in0.0 mm
01:55 AM 81.2°F27.3°C 76.6°F24.8°C 86% Calm Calm 6.0 mph9.7 kmh 30.00 in1015.9 mb 0.00 in0.0 mm 0.00 in0.0 mm 0.00 in0.0 mm
02:00 AM 81.1°F27.3°C 76.5°F24.7°C 86% Calm Calm -- 30.00 in1015.9 mb 0.00 in0.0 mm 0.00 in0.0 mm 0.00 in0.0 mm
02:05 AM 81.0°F27.2°C 76.4°F24.7°C 86% Calm Calm -- 30.01 in1016.3 mb 0.00 in0.0 mm 0.00 in0.0 mm 0.00 in0.0 mm
02:10 AM 81.0°F27.2°C 76.4°F24.7°C 86% Calm Calm -- 30.00 in1015.9 mb 0.00 in0.0 mm 0.00 in0.0 mm 0.00 in0.0 mm
02:15 AM 80.9°F27.2°C 76.7°F24.8°C 87% Calm Calm -- 30.00 in1015.9 mb 0.00 in0.0 mm 0.00 in0.0 mm 0.00 in0.0 mm
02:20 AM 80.9°F27.2°C 76.3°F24.6°C 86% Calm Calm -- 30.00 in1015.9 mb 0.00 in0.0 mm 0.00 in0.0 mm 0.00 in0.0 mm
02:25 AM 80.9°F27.2°C 76.3°F24.6°C 86% Calm Calm -- 29.99 in1015.6 mb 0.00 in0.0 mm 0.00 in0.0 mm 0.00 in0.0 mm
02:30 AM 80.8°F27.1°C 76.9°F24.9°C 88% Calm Calm -- 29.99 in1015.6 mb 0.00 in0.0 mm 0.00 in0.0 mm 0.00 in0.0 mm
02:35 AM 80.8°F27.1°C 76.2°F24.6°C 86% Calm Calm -- 29.99 in1015.6 mb 0.00 in0.0 mm 0.00 in0.0 mm 0.00 in0.0 mm
02:40 AM 80.8°F27.1°C 76.2°F24.6°C 86% Calm Calm -- 30.00 in1015.9 mb 0.00 in0.0 mm 0.00 in0.0 mm 0.00 in0.0 mm
02:45 AM 80.8°F27.1°C 76.6°F24.8°C 87% Calm Calm 7.0 mph11.3 kmh 30.00 in1015.9 mb 0.00 in0.0 mm 0.00 in0.0 mm 0.00 in0.0 mm
02:50 AM 80.8°F27.1°C 76.6°F24.8°C 87% Calm Calm 7.0 mph11.3 kmh 30.00 in1015.9 mb 0.00 in0.0 mm 0.00 in0.0 mm 0.00 in0.0 mm
02:55 AM 80.7°F27.1°C 76.5°F24.7°C 87% Calm Calm 7.0 mph11.3 kmh 29.99 in1015.6 mb 0.00 in0.0 mm 0.00 in0.0 mm 0.00 in0.0 mm
03:00 AM 80.7°F27.1°C 76.5°F24.7°C 87% Calm Calm -- 29.99 in1015.6 mb 0.00 in0.0 mm 0.00 in0.0 mm 0.00 in0.0 mm
03:05 AM 80.7°F27.1°C 76.5°F24.7°C 87% Calm Calm -- 29.99 in1015.6 mb 0.00 in0.0 mm 0.00 in0.0 mm 0.00 in0.0 mm
03:10 AM 80.6°F27.0°C 76.4°F24.7°C 87% Calm Calm -- 29.98 in1015.2 mb 0.00 in0.0 mm 0.00 in0.0 mm 0.00 in0.0 mm
03:15 AM 80.5°F26.9°C 76.3°F24.6°C 87% Calm Calm -- 29.99 in1015.6 mb 0.00 in0.0 mm 0.00 in0.0 mm 0.00 in0.0 mm
03:20 AM 80.5°F26.9°C 76.3°F24.6°C 87% Calm Calm -- 29.99 in1015.6 mb 0.00 in0.0 mm 0.00 in0.0 mm 0.00 in0.0 mm
03:25 AM 80.5°F26.9°C 76.3°F24.6°C 87% Calm Calm -- 29.99 in1015.6 mb 0.00 in0.0 mm 0.00 in0.0 mm 0.00 in0.0 mm
03:30 AM 80.3°F26.8°C 76.1°F24.5°C 87% Calm Calm -- 29.99 in1015.6 mb 0.00 in0.0 mm 0.00 in0.0 mm 0.00 in0.0 mm
03:35 AM 80.2°F26.8°C 76.7°F24.8°C 89% Calm Calm -- 29.99 in1015.6 mb 0.00 in0.0 mm 0.00 in0.0 mm 0.00 in0.0 mm
03:40 AM 80.2°F26.8°C 76.7°F24.8°C 89% Calm Calm -- 29.98 in1015.2 mb 0.00 in0.0 mm 0.00 in0.0 mm 0.00 in0.0 mm
03:45 AM 80.1°F26.7°C 76.2°F24.6°C 88% Calm Calm -- 29.98 in1015.2 mb 0.00 in0.0 mm 0.00 in0.0 mm 0.00 in0.0 mm
03:50 AM 80.1°F26.7°C 76.2°F24.6°C 88% Calm Calm -- 29.98 in1015.2 mb 0.00 in0.0 mm 0.00 in0.0 mm 0.00 in0.0 mm
03:55 AM 80.0°F26.7°C 76.5°F24.7°C 89% Calm Calm -- 29.98 in1015.2 mb 0.00 in0.0 mm 0.00 in0.0 mm 0.00 in0.0 mm
04:00 AM 79.9°F26.6°C 76.0°F24.4°C 88% Calm Calm -- 29.98 in1015.2 mb 0.00 in0.0 mm 0.00 in0.0 mm 0.00 in0.0 mm
04:05 AM 79.8°F26.6°C 75.9°F24.4°C 88% Calm Calm -- 29.99 in1015.6 mb 0.00 in0.0 mm 0.00 in0.0 mm 0.00 in0.0 mm
04:10 AM 79.7°F26.5°C 76.2°F24.6°C 89% Calm Calm -- 29.98 in1015.2 mb 0.00 in0.0 mm 0.00 in0.0 mm 0.00 in0.0 mm
04:15 AM 79.6°F26.4°C 76.1°F24.5°C 89% Calm Calm -- 29.99 in1015.6 mb 0.00 in0.0 mm 0.00 in0.0 mm 0.00 in0.0 mm
04:20 AM 79.5°F26.4°C 76.0°F24.4°C 89% Calm Calm -- 29.98 in1015.2 mb 0.00 in0.0 mm 0.00 in0.0 mm 0.00 in0.0 mm
04:25 AM 79.4°F26.3°C 76.2°F24.6°C 90% Calm Calm -- 29.97 in1014.9 mb 0.00 in0.0 mm 0.00 in0.0 mm 0.00 in0.0 mm
04:30 AM 79.3°F26.3°C 76.5°F24.7°C 91% Calm Calm -- 29.99 in1015.6 mb 0.00 in0.0 mm 0.00 in0.0 mm 0.00 in0.0 mm
04:35 AM 79.2°F26.2°C 76.0°F24.4°C 90% Calm Calm -- 29.98 in1015.2 mb 0.00 in0.0 mm 0.00 in0.0 mm 0.00 in0.0 mm
04:40 AM 79.1°F26.2°C 76.6°F24.8°C 92% Calm Calm -- 29.97 in1014.9 mb 0.00 in0.0 mm 0.00 in0.0 mm 0.00 in0.0 mm
04:45 AM 79.0°F26.1°C 76.2°F24.6°C 91% Calm Calm -- 29.97 in1014.9 mb 0.00 in0.0 mm 0.00 in0.0 mm 0.00 in0.0 mm
04:50 AM 78.9°F26.1°C 75.4°F24.1°C 89% Calm Calm -- 29.97 in1014.9 mb 0.00 in0.0 mm 0.00 in0.0 mm 0.00 in0.0 mm
04:55 AM 78.9°F26.1°C 75.7°F24.3°C 90% Calm Calm -- 29.97 in1014.9 mb 0.00 in0.0 mm 0.00 in0.0 mm 0.00 in0.0 mm
05:00 AM 78.8°F26.0°C 75.6°F24.2°C 90% Calm Calm -- 29.97 in1014.9 mb 0.00 in0.0 mm 0.00 in0.0 mm 0.00 in0.0 mm
05:05 AM 78.7°F25.9°C 75.5°F24.2°C 90% Calm Calm -- 29.97 in1014.9 mb 0.00 in0.0 mm 0.00 in0.0 mm 0.00 in0.0 mm
05:10 AM 78.6°F25.9°C 75.4°F24.1°C 90% Calm Calm -- 29.97 in1014.9 mb 0.00 in0.0 mm 0.00 in0.0 mm 0.00 in0.0 mm
05:15 AM 78.5°F25.8°C 75.3°F24.1°C 90% Calm Calm -- 29.98 in1015.2 mb 0.00 in0.0 mm 0.00 in0.0 mm 0.00 in0.0 mm
05:20 AM 78.5°F25.8°C 76.3°F24.6°C 93% Calm Calm -- 29.98 in1015.2 mb 0.00 in0.0 mm 0.00 in0.0 mm 0.00 in0.0 mm
05:25 AM 78.4°F25.8°C 75.6°F24.2°C 91% Calm Calm -- 29.97 in1014.9 mb 0.00 in0.0 mm 0.00 in0.0 mm 0.00 in0.0 mm
05:30 AM 78.4°F25.8°C 75.2°F24.0°C 90% Calm Calm -- 29.97 in1014.9 mb 0.00 in0.0 mm 0.00 in0.0 mm 0.00 in0.0 mm
05:35 AM 78.2°F25.7°C 75.0°F23.9°C 90% Calm Calm -- 29.97 in1014.9 mb 0.00 in0.0 mm 0.00 in0.0 mm 0.00 in0.0 mm
05:40 AM 78.1°F25.6°C 74.9°F23.8°C 90% Calm Calm -- 29.97 in1014.9 mb 0.00 in0.0 mm 0.00 in0.0 mm 0.00 in0.0 mm
05:45 AM 78.1°F25.6°C 74.9°F23.8°C 90% Calm Calm -- 29.97 in1014.9 mb 0.00 in0.0 mm 0.00 in0.0 mm 0.00 in0.0 mm
05:50 AM 78.0°F25.6°C 75.2°F24.0°C 91% Calm Calm -- 29.97 in1014.9 mb 0.00 in0.0 mm 0.00 in0.0 mm 0.00 in0.0 mm
05:55 AM 78.0°F25.6°C 74.8°F23.8°C 90% Calm Calm -- 29.98 in1015.2 mb 0.00 in0.0 mm 0.00 in0.0 mm 0.00 in0.0 mm
06:00 AM 77.9°F25.5°C 74.7°F23.7°C 90% Calm Calm -- 29.97 in1014.9 mb 0.00 in0.0 mm 0.00 in0.0 mm 0.00 in0.0 mm
06:05 AM 77.9°F25.5°C 75.1°F23.9°C 91% Calm Calm -- 29.97 in1014.9 mb 0.00 in0.0 mm 0.00 in0.0 mm 0.00 in0.0 mm
06:10 AM 77.8°F25.4°C 75.0°F23.9°C 91% Calm Calm -- 29.97 in1014.9 mb 0.00 in0.0 mm 0.00 in0.0 mm 0.00 in0.0 mm
06:15 AM 77.7°F25.4°C 74.9°F23.8°C 91% Calm Calm -- 29.97 in1014.9 mb 0.00 in0.0 mm 0.00 in0.0 mm 0.00 in0.0 mm
06:20 AM 77.7°F25.4°C 74.5°F23.6°C 90% Calm Calm -- 29.97 in1014.9 mb 0.00 in0.0 mm 0.00 in0.0 mm 0.00 in0.0 mm
06:25 AM 77.7°F25.4°C 74.5°F23.6°C 90% Calm Calm -- 29.97 in1014.9 mb 0.00 in0.0 mm 0.00 in0.0 mm 0.00 in0.0 mm
06:30 AM 77.6°F25.3°C 74.8°F23.8°C 91% Calm Calm -- 29.98 in1015.2 mb 0.00 in0.0 mm 0.00 in0.0 mm 0.00 in0.0 mm
06:35 AM 77.6°F25.3°C 74.4°F23.6°C 90% Calm Calm -- 29.97 in1014.9 mb 0.00 in0.0 mm 0.00 in0.0 mm 0.00 in0.0 mm
06:40 AM 77.5°F25.3°C 74.3°F23.5°C 90% Calm Calm -- 29.97 in1014.9 mb 0.00 in0.0 mm 0.00 in0.0 mm 0.00 in0.0 mm
06:45 AM 77.5°F25.3°C 74.7°F23.7°C 91% Calm Calm -- 29.98 in1015.2 mb 0.00 in0.0 mm 0.00 in0.0 mm 0.00 in0.0 mm
06:50 AM 77.4°F25.2°C 74.6°F23.7°C 91% Calm Calm -- 29.99 in1015.6 mb 0.00 in0.0 mm 0.00 in0.0 mm 0.00 in0.0 mm
06:55 AM 77.3°F25.2°C 74.5°F23.6°C 91% Calm Calm -- 29.99 in1015.6 mb 0.00 in0.0 mm 0.00 in0.0 mm 0.00 in0.0 mm
07:00 AM 77.3°F25.2°C 74.5°F23.6°C 91% Calm Calm -- 29.99 in1015.6 mb 0.00 in0.0 mm 0.00 in0.0 mm 0.00 in0.0 mm
07:05 AM 77.2°F25.1°C 74.4°F23.6°C 91% Calm Calm -- 29.99 in1015.6 mb 0.00 in0.0 mm 0.00 in0.0 mm 0.00 in0.0 mm
07:10 AM 77.1°F25.1°C 74.3°F23.5°C 91% Calm Calm -- 29.99 in1015.6 mb 0.00 in0.0 mm 0.00 in0.0 mm 0.00 in0.0 mm
07:15 AM 77.1°F25.1°C 74.3°F23.5°C 91% Calm Calm -- 29.99 in1015.6 mb 0.00 in0.0 mm 0.00 in0.0 mm 0.00 in0.0 mm
07:20 AM 77.1°F25.1°C 74.3°F23.5°C 91% Calm Calm -- 29.99 in1015.6 mb 0.00 in0.0 mm 0.00 in0.0 mm 0.00 in0.0 mm
07:25 AM 77.1°F25.1°C 74.6°F23.7°C 92% Calm Calm -- 29.99 in1015.6 mb 0.00 in0.0 mm 0.00 in0.0 mm 0.00 in0.0 mm
07:30 AM 77.1°F25.1°C 74.6°F23.7°C 92% Calm Calm -- 29.99 in1015.6 mb 0.00 in0.0 mm 0.00 in0.0 mm 0.00 in0.0 mm
07:35 AM 77.3°F25.2°C 75.1°F23.9°C 93% Calm Calm -- 30.00 in1015.9 mb 0.00 in0.0 mm 0.00 in0.0 mm 0.00 in0.0 mm
07:40 AM 77.6°F25.3°C 75.7°F24.3°C 94% Calm Calm -- 29.99 in1015.6 mb 0.00 in0.0 mm 0.00 in0.0 mm 0.00 in0.0 mm
07:45 AM 77.7°F25.4°C 75.8°F24.3°C 94% Calm Calm -- 29.99 in1015.6 mb 0.00 in0.0 mm 0.00 in0.0 mm 0.00 in0.0 mm
07:50 AM 77.8°F25.4°C 75.9°F24.4°C 94% Calm Calm -- 29.99 in1015.6 mb 0.00 in0.0 mm 0.00 in0.0 mm 0.00 in0.0 mm
07:55 AM 77.9°F25.5°C 75.7°F24.3°C 93% Calm Calm 1.0 mph1.6 kmh 29.99 in1015.6 mb 0.00 in0.0 mm 0.00 in0.0 mm 0.00 in0.0 mm
08:00 AM 78.1°F25.6°C 75.9°F24.4°C 93% Calm Calm -- 29.99 in1015.6 mb 0.00 in0.0 mm 0.00 in0.0 mm 0.00 in0.0 mm
08:05 AM 78.3°F25.7°C 76.1°F24.5°C 93% Calm Calm -- 30.00 in1015.9 mb 0.00 in0.0 mm 0.00 in0.0 mm 0.00 in0.0 mm
08:10 AM 78.5°F25.8°C 76.3°F24.6°C 93% Calm Calm -- 30.00 in1015.9 mb 0.00 in0.0 mm 0.00 in0.0 mm 0.00 in0.0 mm
08:15 AM 78.8°F26.0°C 76.6°F24.8°C 93% Calm Calm -- 30.00 in1015.9 mb 0.00 in0.0 mm 0.00 in0.0 mm 0.00 in0.0 mm
08:20 AM 79.1°F26.2°C 76.9°F24.9°C 93% Calm Calm -- 30.01 in1016.3 mb 0.00 in0.0 mm 0.00 in0.0 mm 0.00 in0.0 mm
08:25 AM 79.3°F26.3°C 77.1°F25.1°C 93% Calm Calm -- 30.01 in1016.3 mb 0.00 in0.0 mm 0.00 in0.0 mm 0.00 in0.0 mm
08:30 AM 79.5°F26.4°C 77.3°F25.2°C 93% Calm Calm -- 30.01 in1016.3 mb 0.00 in0.0 mm 0.00 in0.0 mm 0.00 in0.0 mm
08:35 AM 79.7°F26.5°C 77.2°F25.1°C 92% 5.0 mph E8.0 kmh E 5.0 mph8.0 kmh 30.01 in1016.3 mb 0.00 in0.0 mm 0.00 in0.0 mm 0.00 in0.0 mm
08:40 AM 79.9°F26.6°C 77.4°F25.2°C 92% Calm Calm 5.0 mph8.0 kmh 30.01 in1016.3 mb 0.00 in0.0 mm 0.00 in0.0 mm 0.00 in0.0 mm
08:45 AM 80.1°F26.7°C 77.2°F25.1°C 91% Calm Calm 6.0 mph9.7 kmh 30.01 in1016.3 mb 0.00 in0.0 mm 0.00 in0.0 mm 0.00 in0.0 mm
08:50 AM 80.2°F26.8°C 77.3°F25.2°C 91% Calm Calm 6.0 mph9.7 kmh 30.01 in1016.3 mb 0.00 in0.0 mm 0.00 in0.0 mm 0.00 in0.0 mm
08:55 AM 80.3°F26.8°C 77.4°F25.2°C 91% Calm Calm 6.0 mph9.7 kmh 30.02 in1016.6 mb 0.00 in0.0 mm 0.00 in0.0 mm 0.00 in0.0 mm
09:00 AM 80.3°F26.8°C 77.4°F25.2°C 91% 5.0 mph ESE8.0 kmh ESE 5.0 mph8.0 kmh 30.02 in1016.6 mb 0.00 in0.0 mm 0.00 in0.0 mm 0.00 in0.0 mm
09:05 AM 80.4°F26.9°C 77.2°F25.1°C 90% Calm Calm 5.0 mph8.0 kmh 30.03 in1016.9 mb 0.00 in0.0 mm 0.00 in0.0 mm 0.00 in0.0 mm
09:10 AM 80.4°F26.9°C 77.2°F25.1°C 90% Calm Calm 5.0 mph8.0 kmh 30.03 in1016.9 mb 0.00 in0.0 mm 0.00 in0.0 mm 0.00 in0.0 mm
09:15 AM 80.4°F26.9°C 77.5°F25.3°C 91% Calm Calm 5.0 mph8.0 kmh 30.02 in1016.6 mb 0.00 in0.0 mm 0.00 in0.0 mm 0.00 in0.0 mm
09:20 AM 80.5°F26.9°C 77.6°F25.3°C 91% Calm Calm 5.0 mph8.0 kmh 30.03 in1016.9 mb 0.03 in0.8 mm 0.36 in9.1 mm 0.03 in0.8 mm
09:25 AM 80.4°F26.9°C 77.5°F25.3°C 91% 2.0 mph SSE3.2 kmh SSE 5.0 mph8.0 kmh 30.03 in1016.9 mb 0.06 in1.5 mm 0.36 in9.1 mm 0.06 in1.5 mm
09:30 AM 80.2°F26.8°C 77.0°F25.0°C 90% 2.0 mph S3.2 kmh S 6.0 mph9.7 kmh 30.03 in1016.9 mb 0.07 in1.8 mm 0.12 in3.0 mm 0.07 in1.8 mm
09:35 AM 80.0°F26.7°C 76.8°F24.9°C 90% Calm Calm 11.0 mph17.7 kmh 30.03 in1016.9 mb 0.08 in2.0 mm 0.12 in3.0 mm 0.08 in2.0 mm
09:40 AM 79.7°F26.5°C 76.5°F24.7°C 90% Calm Calm 11.0 mph17.7 kmh 30.04 in1017.3 mb 0.09 in2.3 mm 0.12 in3.0 mm 0.09 in2.3 mm
09:45 AM 79.6°F26.4°C 76.8°F24.9°C 91% 1.0 mph SSW1.6 kmh SSW 11.0 mph17.7 kmh 30.04 in1017.3 mb 0.18 in4.6 mm 1.08 in27.4 mm 0.18 in4.6 mm
09:50 AM 79.4°F26.3°C 76.6°F24.8°C 91% Calm Calm 11.0 mph17.7 kmh 30.03 in1016.9 mb 0.28 in7.1 mm 1.20 in30.5 mm 0.28 in7.1 mm
09:55 AM 79.3°F26.3°C 76.8°F24.9°C 92% Calm Calm 11.0 mph17.7 kmh 30.04 in1017.3 mb 0.28 in7.1 mm 0.00 in0.0 mm 0.28 in7.1 mm
10:00 AM 79.2°F26.2°C 76.7°F24.8°C 92% Calm Calm -- 30.04 in1017.3 mb 0.28 in7.1 mm 0.00 in0.0 mm 0.28 in7.1 mm
10:05 AM 79.2°F26.2°C 76.7°F24.8°C 92% Calm Calm -- 30.04 in1017.3 mb 0.28 in7.1 mm 0.00 in0.0 mm 0.28 in7.1 mm
10:10 AM 79.1°F26.2°C 76.6°F24.8°C 92% Calm Calm -- 30.04 in1017.3 mb 0.28 in7.1 mm 0.00 in0.0 mm 0.28 in7.1 mm
10:15 AM 79.1°F26.2°C 76.6°F24.8°C 92% Calm Calm -- 30.04 in1017.3 mb 0.28 in7.1 mm 0.00 in0.0 mm 0.28 in7.1 mm
10:20 AM 79.1°F26.2°C 76.6°F24.8°C 92% Calm Calm -- 30.04 in1017.3 mb 0.28 in7.1 mm 0.00 in0.0 mm 0.28 in7.1 mm
10:25 AM 79.1°F26.2°C 76.9°F24.9°C 93% Calm Calm -- 30.04 in1017.3 mb 0.28 in7.1 mm 0.00 in0.0 mm 0.28 in7.1 mm
10:30 AM 79.1°F26.2°C 76.9°F24.9°C 93% Calm Calm -- 30.04 in1017.3 mb 0.28 in7.1 mm 0.00 in0.0 mm 0.28 in7.1 mm
10:35 AM 79.1°F26.2°C 76.9°F24.9°C 93% Calm Calm -- 30.05 in1017.6 mb 0.28 in7.1 mm 0.00 in0.0 mm 0.28 in7.1 mm
10:40 AM 79.2°F26.2°C 77.0°F25.0°C 93% Calm Calm -- 30.05 in1017.6 mb 0.28 in7.1 mm 0.00 in0.0 mm 0.28 in7.1 mm
10:45 AM 79.3°F26.3°C 77.1°F25.1°C 93% Calm Calm -- 30.05 in1017.6 mb 0.28 in7.1 mm 0.00 in0.0 mm 0.28 in7.1 mm
10:50 AM 79.3°F26.3°C 77.1°F25.1°C 93% Calm Calm -- 30.05 in1017.6 mb 0.28 in7.1 mm 0.00 in0.0 mm 0.28 in7.1 mm
10:55 AM 79.3°F26.3°C 77.1°F25.1°C 93% Calm Calm -- 30.05 in1017.6 mb 0.28 in7.1 mm 0.00 in0.0 mm 0.28 in7.1 mm
11:00 AM 79.3°F26.3°C 77.4°F25.2°C 94% Calm Calm -- 30.05 in1017.6 mb 0.00 in0.0 mm 0.00 in0.0 mm 0.28 in7.1 mm
11:05 AM 79.4°F26.3°C 77.5°F25.3°C 94% Calm Calm -- 30.05 in1017.6 mb 0.00 in0.0 mm 0.00 in0.0 mm 0.28 in7.1 mm
11:10 AM 79.2°F26.2°C 77.3°F25.2°C 94% Calm Calm -- 30.06 in1017.9 mb 0.00 in0.0 mm 0.00 in0.0 mm 0.28 in7.1 mm
11:15 AM 79.0°F26.1°C 77.1°F25.1°C 94% Calm Calm -- 30.06 in1017.9 mb 0.00 in0.0 mm 0.00 in0.0 mm 0.28 in7.1 mm
11:20 AM 78.9°F26.1°C 77.0°F25.0°C 94% Calm Calm -- 30.06 in1017.9 mb 0.00 in0.0 mm 0.00 in0.0 mm 0.28 in7.1 mm
11:25 AM 78.8°F26.0°C 76.9°F24.9°C 94% Calm Calm -- 30.06 in1017.9 mb 0.00 in0.0 mm 0.00 in0.0 mm 0.28 in7.1 mm
11:30 AM 78.5°F25.8°C 76.6°F24.8°C 94% Calm Calm -- 30.07 in1018.3 mb 0.07 in1.8 mm 0.84 in21.3 mm 0.35 in8.9 mm
11:35 AM 77.9°F25.5°C 75.7°F24.3°C 93% 2.0 mph NNW3.2 kmh NNW 5.0 mph8.0 kmh 30.06 in1017.9 mb 0.33 in8.4 mm 3.12 in79.2 mm 0.61 in15.5 mm
11:40 AM 77.5°F25.3°C 75.6°F24.2°C 94% 3.0 mph NW4.8 kmh NW 8.0 mph12.9 kmh 30.06 in1017.9 mb 0.60 in15.2 mm 3.24 in82.3 mm 0.88 in22.4 mm
11:45 AM 77.3°F25.2°C 75.4°F24.1°C 94% Calm Calm 8.0 mph12.9 kmh 30.06 in1017.9 mb 0.72 in18.3 mm 1.44 in36.6 mm 1.00 in25.4 mm
11:50 AM 76.9°F24.9°C 75.1°F23.9°C 94% 2.0 mph N3.2 kmh N 8.0 mph12.9 kmh 30.06 in1017.9 mb 0.73 in18.5 mm 0.12 in3.0 mm 1.01 in25.7 mm
11:55 AM 76.7°F24.8°C 74.9°F23.8°C 94% Calm Calm 8.0 mph12.9 kmh 30.06 in1017.9 mb 0.73 in18.5 mm 0.00 in0.0 mm 1.01 in25.7 mm
12:00 PM 76.6°F24.8°C 75.1°F23.9°C 95% Calm Calm -- 30.06 in1017.9 mb 0.74 in18.8 mm 0.01 in0.3 mm 1.02 in25.9 mm
12:05 PM 76.6°F24.8°C 75.1°F23.9°C 95% Calm Calm 4.0 mph6.4 kmh 30.05 in1017.6 mb 0.74 in18.8 mm 0.00 in0.0 mm 1.02 in25.9 mm
12:10 PM 76.7°F24.8°C 75.2°F24.0°C 95% Calm Calm 4.0 mph6.4 kmh 30.05 in1017.6 mb 0.74 in18.8 mm 0.00 in0.0 mm 1.02 in25.9 mm
12:15 PM 76.8°F24.9°C 75.6°F24.2°C 96% Calm Calm 4.0 mph6.4 kmh 30.06 in1017.9 mb 0.74 in18.8 mm 0.00 in0.0 mm 1.02 in25.9 mm
12:20 PM 76.8°F24.9°C 75.6°F24.2°C 96% Calm Calm 10.0 mph16.1 kmh 30.06 in1017.9 mb 0.78 in19.8 mm 0.48 in12.2 mm 1.06 in26.9 mm
12:25 PM 76.5°F24.7°C 75.0°F23.9°C 95% Calm Calm 10.0 mph16.1 kmh 30.04 in1017.3 mb 0.80 in20.3 mm 0.24 in6.1 mm 1.08 in27.4 mm
12:30 PM 76.4°F24.7°C 75.2°F24.0°C 96% Calm Calm 10.0 mph16.1 kmh 30.05 in1017.6 mb 0.81 in20.6 mm 0.12 in3.0 mm 1.09 in27.7 mm
12:35 PM 76.5°F24.7°C 75.3°F24.1°C 96% Calm Calm 10.0 mph16.1 kmh 30.05 in1017.6 mb 0.81 in20.6 mm 0.00 in0.0 mm 1.09 in27.7 mm
12:40 PM 76.7°F24.8°C 75.5°F24.2°C 96% Calm Calm 10.0 mph16.1 kmh 30.05 in1017.6 mb 0.81 in20.6 mm 0.00 in0.0 mm 1.09 in27.7 mm
12:45 PM 76.9°F24.9°C 75.7°F24.3°C 96% Calm Calm 10.0 mph16.1 kmh 30.04 in1017.3 mb 0.82 in20.8 mm 0.12 in3.0 mm 1.10 in27.9 mm
12:50 PM 77.1°F25.1°C 75.9°F24.4°C 96% Calm Calm 10.0 mph16.1 kmh 30.04 in1017.3 mb 0.82 in20.8 mm 0.00 in0.0 mm 1.10 in27.9 mm
12:55 PM 77.1°F25.1°C 75.9°F24.4°C 96% 1.0 mph ESE1.6 kmh ESE 10.0 mph16.1 kmh 30.03 in1016.9 mb 0.84 in21.3 mm 0.24 in6.1 mm 1.12 in28.4 mm
01:00 PM 77.4°F25.2°C 76.5°F24.7°C 97% 5.0 mph E8.0 kmh E 5.0 mph8.0 kmh 30.03 in1016.9 mb 0.11 in2.8 mm 0.00 in0.0 mm 1.12 in28.4 mm
01:05 PM 77.9°F25.5°C 77.0°F25.0°C 97% 3.0 mph ENE4.8 kmh ENE 9.0 mph14.5 kmh 30.03 in1016.9 mb 0.12 in3.0 mm 0.12 in3.0 mm 1.13 in28.7 mm
01:10 PM 78.2°F25.7°C 77.3°F25.2°C 97% 2.0 mph NE3.2 kmh NE 9.0 mph14.5 kmh 30.04 in1017.3 mb 0.12 in3.0 mm 0.00 in0.0 mm 1.13 in28.7 mm
01:15 PM 78.2°F25.7°C 77.3°F25.2°C 97% Calm Calm 9.0 mph14.5 kmh 30.03 in1016.9 mb 0.13 in3.3 mm 0.12 in3.0 mm 1.14 in29.0 mm
01:20 PM 78.5°F25.8°C 77.6°F25.3°C 97% Calm Calm 9.0 mph14.5 kmh 30.03 in1016.9 mb 0.13 in3.3 mm 0.00 in0.0 mm 1.14 in29.0 mm
01:25 PM 78.7°F25.9°C 78.1°F25.6°C 98% Calm Calm 9.0 mph14.5 kmh 30.03 in1016.9 mb 0.13 in3.3 mm 0.00 in0.0 mm 1.14 in29.0 mm
01:30 PM 78.8°F26.0°C 77.9°F25.5°C 97% Calm Calm 9.0 mph14.5 kmh 30.02 in1016.6 mb 0.13 in3.3 mm 0.00 in0.0 mm 1.14 in29.0 mm
01:35 PM 78.9°F26.1°C 78.0°F25.6°C 97% Calm Calm 9.0 mph14.5 kmh 30.03 in1016.9 mb 0.13 in3.3 mm 0.00 in0.0 mm 1.14 in29.0 mm
01:40 PM 79.0°F26.1°C 78.1°F25.6°C 97% Calm Calm 9.0 mph14.5 kmh 30.03 in1016.9 mb 0.13 in3.3 mm 0.00 in0.0 mm 1.14 in29.0 mm
01:45 PM 79.4°F26.3°C 78.8°F26.0°C 98% Calm Calm 9.0 mph14.5 kmh 30.02 in1016.6 mb 0.13 in3.3 mm 0.00 in0.0 mm 1.14 in29.0 mm
01:50 PM 79.7°F26.5°C 78.8°F26.0°C 97% Calm Calm 9.0 mph14.5 kmh 30.02 in1016.6 mb 0.13 in3.3 mm 0.00 in0.0 mm 1.14 in29.0 mm
01:55 PM 79.8°F26.6°C 78.9°F26.1°C 97% Calm Calm 9.0 mph14.5 kmh 30.01 in1016.3 mb 0.13 in3.3 mm 0.00 in0.0 mm 1.14 in29.0 mm
02:00 PM 79.5°F26.4°C 78.3°F25.7°C 96% Calm Calm -- 30.02 in1016.6 mb 0.02 in0.5 mm 0.00 in0.0 mm 1.14 in29.0 mm
02:05 PM 79.8°F26.6°C 78.9°F26.1°C 97% Calm Calm -- 30.02 in1016.6 mb 0.03 in0.8 mm 0.12 in3.0 mm 1.15 in29.2 mm
02:10 PM 80.1°F26.7°C 79.2°F26.2°C 97% Calm Calm -- 30.02 in1016.6 mb 0.03 in0.8 mm 0.00 in0.0 mm 1.15 in29.2 mm
02:15 PM 80.4°F26.9°C 79.5°F26.4°C 97% Calm Calm -- 30.01 in1016.3 mb 0.03 in0.8 mm 0.00 in0.0 mm 1.15 in29.2 mm
02:20 PM 80.5°F26.9°C 79.6°F26.4°C 97% Calm Calm -- 30.01 in1016.3 mb 0.03 in0.8 mm 0.00 in0.0 mm 1.15 in29.2 mm
02:25 PM 80.9°F27.2°C 79.7°F26.5°C 96% Calm Calm 4.0 mph6.4 kmh 30.02 in1016.6 mb 0.03 in0.8 mm 0.00 in0.0 mm 1.15 in29.2 mm
02:30 PM 81.1°F27.3°C 79.9°F26.6°C 96% Calm Calm 4.0 mph6.4 kmh 30.01 in1016.3 mb 0.03 in0.8 mm 0.00 in0.0 mm 1.15 in29.2 mm
02:35 PM 81.3°F27.4°C 80.1°F26.7°C 96% Calm Calm 4.0 mph6.4 kmh 30.01 in1016.3 mb 0.03 in0.8 mm 0.00 in0.0 mm 1.15 in29.2 mm
02:40 PM 81.4°F27.4°C 79.8°F26.6°C 95% Calm Calm 4.0 mph6.4 kmh 30.01 in1016.3 mb 0.03 in0.8 mm 0.00 in0.0 mm 1.15 in29.2 mm
02:45 PM 81.3°F27.4°C 80.1°F26.7°C 96% Calm Calm 4.0 mph6.4 kmh 30.01 in1016.3 mb 0.03 in0.8 mm 0.00 in0.0 mm 1.15 in29.2 mm
02:50 PM 81.4°F27.4°C 79.5°F26.4°C 94% Calm Calm 4.0 mph6.4 kmh 30.00 in1015.9 mb 0.03 in0.8 mm 0.00 in0.0 mm 1.15 in29.2 mm
02:55 PM 81.3°F27.4°C 78.4°F25.8°C 91% Calm Calm 4.0 mph6.4 kmh 30.00 in1015.9 mb 0.03 in0.8 mm 0.00 in0.0 mm 1.15 in29.2 mm
03:00 PM 81.7°F27.6°C 79.2°F26.2°C 92% 2.0 mph E3.2 kmh E 3.0 mph4.8 kmh 30.00 in1015.9 mb 0.01 in0.3 mm 0.00 in0.0 mm 1.15 in29.2 mm
03:05 PM 82.2°F27.9°C 81.0°F27.2°C 96% Calm Calm 6.0 mph9.7 kmh 30.00 in1015.9 mb 0.01 in0.3 mm 0.00 in0.0 mm 1.15 in29.2 mm
03:10 PM 82.4°F28.0°C 78.5°F25.8°C 88% 4.0 mph E6.4 kmh E 12.0 mph19.3 kmh 29.99 in1015.6 mb 0.01 in0.3 mm 0.00 in0.0 mm 1.15 in29.2 mm
03:15 PM 82.9°F28.3°C 79.3°F26.3°C 89% Calm Calm 12.0 mph19.3 kmh 29.99 in1015.6 mb 0.01 in0.3 mm 0.00 in0.0 mm 1.15 in29.2 mm
03:20 PM 83.4°F28.6°C 78.4°F25.8°C 85% Calm Calm 12.0 mph19.3 kmh 29.99 in1015.6 mb 0.01 in0.3 mm 0.00 in0.0 mm 1.15 in29.2 mm
03:25 PM 83.5°F28.6°C 77.4°F25.2°C 82% Calm Calm 12.0 mph19.3 kmh 29.99 in1015.6 mb 0.01 in0.3 mm 0.00 in0.0 mm 1.15 in29.2 mm
03:30 PM 83.8°F28.8°C 78.5°F25.8°C 84% 6.0 mph ESE9.7 kmh ESE 12.0 mph19.3 kmh 29.99 in1015.6 mb 0.01 in0.3 mm 0.00 in0.0 mm 1.15 in29.2 mm
03:35 PM 83.9°F28.8°C 77.1°F25.1°C 80% Calm Calm 12.0 mph19.3 kmh 29.99 in1015.6 mb 0.01 in0.3 mm 0.00 in0.0 mm 1.15 in29.2 mm
03:40 PM 84.2°F29.0°C 77.4°F25.2°C 80% 5.0 mph NE8.0 kmh NE 12.0 mph19.3 kmh 29.99 in1015.6 mb 0.01 in0.3 mm 0.00 in0.0 mm 1.15 in29.2 mm
03:45 PM 84.3°F29.1°C 77.5°F25.3°C 80% 6.0 mph NE9.7 kmh NE 12.0 mph19.3 kmh 29.98 in1015.2 mb 0.01 in0.3 mm 0.00 in0.0 mm 1.15 in29.2 mm
03:50 PM 84.2°F29.0°C 77.0°F25.0°C 79% Calm Calm 12.0 mph19.3 kmh 29.98 in1015.2 mb 0.01 in0.3 mm 0.00 in0.0 mm 1.15 in29.2 mm
03:55 PM 84.4°F29.1°C 77.6°F25.3°C 80% 1.0 mph E1.6 kmh E 12.0 mph19.3 kmh 29.98 in1015.2 mb 0.01 in0.3 mm 0.00 in0.0 mm 1.15 in29.2 mm
04:00 PM 84.6°F29.2°C 78.5°F25.8°C 82% Calm Calm -- 29.98 in1015.2 mb 0.00 in0.0 mm 0.00 in0.0 mm 1.15 in29.2 mm
04:05 PM 84.6°F29.2°C 78.1°F25.6°C 81% Calm Calm 4.0 mph6.4 kmh 29.98 in1015.2 mb 0.00 in0.0 mm 0.00 in0.0 mm 1.15 in29.2 mm
04:10 PM 84.4°F29.1°C 78.7°F25.9°C 83% Calm Calm 4.0 mph6.4 kmh 29.98 in1015.2 mb 0.00 in0.0 mm 0.00 in0.0 mm 1.15 in29.2 mm
04:15 PM 84.0°F28.9°C 76.4°F24.7°C 78% Calm Calm 7.0 mph11.3 kmh 29.98 in1015.2 mb 0.00 in0.0 mm 0.00 in0.0 mm 1.15 in29.2 mm
04:20 PM 83.9°F28.8°C 77.5°F25.3°C 81% Calm Calm 7.0 mph11.3 kmh 29.98 in1015.2 mb 0.00 in0.0 mm 0.00 in0.0 mm 1.15 in29.2 mm
04:25 PM 83.8°F28.8°C 77.7°F25.4°C 82% Calm Calm 7.0 mph11.3 kmh 29.98 in1015.2 mb 0.00 in0.0 mm 0.00 in0.0 mm 1.15 in29.2 mm
04:30 PM 83.7°F28.7°C 77.6°F25.3°C 82% Calm Calm 7.0 mph11.3 kmh 29.97 in1014.9 mb 0.00 in0.0 mm 0.00 in0.0 mm 1.15 in29.2 mm
04:35 PM 83.7°F28.7°C 78.0°F25.6°C 83% Calm Calm 7.0 mph11.3 kmh 29.97 in1014.9 mb 0.00 in0.0 mm 0.00 in0.0 mm 1.15 in29.2 mm
04:40 PM 83.6°F28.7°C 78.6°F25.9°C 85% Calm Calm 7.0 mph11.3 kmh 29.98 in1015.2 mb 0.00 in0.0 mm 0.00 in0.0 mm 1.15 in29.2 mm
04:45 PM 83.5°F28.6°C 76.7°F24.8°C 80% Calm Calm 7.0 mph11.3 kmh 29.97 in1014.9 mb 0.00 in0.0 mm 0.00 in0.0 mm 1.15 in29.2 mm
04:50 PM 83.4°F28.6°C 77.3°F25.2°C 82% Calm Calm 7.0 mph11.3 kmh 29.98 in1015.2 mb 0.00 in0.0 mm 0.00 in0.0 mm 1.15 in29.2 mm
04:55 PM 83.3°F28.5°C 75.7°F24.3°C 78% 1.0 mph ENE1.6 kmh ENE 10.0 mph16.1 kmh 29.98 in1015.2 mb 0.00 in0.0 mm 0.00 in0.0 mm 1.15 in29.2 mm
05:00 PM 83.3°F28.5°C 75.7°F24.3°C 78% Calm Calm -- 29.98 in1015.2 mb 0.00 in0.0 mm 0.00 in0.0 mm 1.15 in29.2 mm
05:05 PM 83.4°F28.6°C 75.4°F24.1°C 77% Calm Calm 5.0 mph8.0 kmh 29.98 in1015.2 mb 0.00 in0.0 mm 0.00 in0.0 mm 1.15 in29.2 mm
05:10 PM 83.4°F28.6°C 75.8°F24.3°C 78% Calm Calm 7.0 mph11.3 kmh 29.98 in1015.2 mb 0.00 in0.0 mm 0.00 in0.0 mm 1.15 in29.2 mm
05:15 PM 83.4°F28.6°C 75.8°F24.3°C 78% Calm Calm 7.0 mph11.3 kmh 29.99 in1015.6 mb 0.00 in0.0 mm 0.00 in0.0 mm 1.15 in29.2 mm
05:20 PM 83.6°F28.7°C 77.5°F25.3°C 82% Calm Calm 7.0 mph11.3 kmh 29.99 in1015.6 mb 0.00 in0.0 mm 0.00 in0.0 mm 1.15 in29.2 mm
05:25 PM 83.7°F28.7°C 78.0°F25.6°C 83% Calm Calm 7.0 mph11.3 kmh 29.98 in1015.2 mb 0.00 in0.0 mm 0.00 in0.0 mm 1.15 in29.2 mm
05:30 PM 83.7°F28.7°C 77.3°F25.2°C 81% Calm Calm 7.0 mph11.3 kmh 29.98 in1015.2 mb 0.00 in0.0 mm 0.00 in0.0 mm 1.15 in29.2 mm
05:35 PM 83.8°F28.8°C 77.7°F25.4°C 82% Calm Calm 7.0 mph11.3 kmh 29.98 in1015.2 mb 0.00 in0.0 mm 0.00 in0.0 mm 1.15 in29.2 mm
05:40 PM 83.8°F28.8°C 77.7°F25.4°C 82% Calm Calm 7.0 mph11.3 kmh 29.98 in1015.2 mb 0.00 in0.0 mm 0.00 in0.0 mm 1.15 in29.2 mm
05:45 PM 83.9°F28.8°C 78.2°F25.7°C 83% 8.0 mph E12.9 kmh E 8.0 mph12.9 kmh 29.99 in1015.6 mb 0.00 in0.0 mm 0.00 in0.0 mm 1.15 in29.2 mm
05:50 PM 83.8°F28.8°C 77.4°F25.2°C 81% Calm Calm 8.0 mph12.9 kmh 29.99 in1015.6 mb 0.00 in0.0 mm 0.00 in0.0 mm 1.15 in29.2 mm
05:55 PM 83.7°F28.7°C 77.3°F25.2°C 81% Calm Calm 8.0 mph12.9 kmh 29.99 in1015.6 mb 0.00 in0.0 mm 0.00 in0.0 mm 1.15 in29.2 mm
06:00 PM 83.6°F28.7°C 77.5°F25.3°C 82% Calm Calm -- 29.99 in1015.6 mb 0.00 in0.0 mm 0.00 in0.0 mm 1.15 in29.2 mm
06:05 PM 83.4°F28.6°C 77.0°F25.0°C 81% Calm Calm -- 29.99 in1015.6 mb 0.00 in0.0 mm 0.00 in0.0 mm 1.15 in29.2 mm
06:10 PM 83.4°F28.6°C 76.6°F24.8°C 80% Calm Calm -- 29.99 in1015.6 mb 0.00 in0.0 mm 0.00 in0.0 mm 1.15 in29.2 mm
06:15 PM 83.2°F28.4°C 76.4°F24.7°C 80% Calm Calm -- 29.99 in1015.6 mb 0.00 in0.0 mm 0.00 in0.0 mm 1.15 in29.2 mm
06:20 PM 83.0°F28.3°C 75.8°F24.3°C 79% Calm Calm -- 29.98 in1015.2 mb 0.00 in0.0 mm 0.00 in0.0 mm 1.15 in29.2 mm
06:25 PM 83.0°F28.3°C 75.8°F24.3°C 79% Calm Calm -- 29.98 in1015.2 mb 0.00 in0.0 mm 0.00 in0.0 mm 1.15 in29.2 mm
06:30 PM 82.9°F28.3°C 75.7°F24.3°C 79% Calm Calm -- 29.99 in1015.6 mb 0.00 in0.0 mm 0.00 in0.0 mm 1.15 in29.2 mm
06:35 PM 82.8°F28.2°C 75.6°F24.2°C 79% Calm Calm -- 29.98 in1015.2 mb 0.00 in0.0 mm 0.00 in0.0 mm 1.15 in29.2 mm
06:40 PM 82.7°F28.2°C 75.9°F24.4°C 80% Calm Calm -- 30.00 in1015.9 mb 0.00 in0.0 mm 0.00 in0.0 mm 1.15 in29.2 mm
06:45 PM 82.7°F28.2°C 76.3°F24.6°C 81% Calm Calm -- 29.99 in1015.6 mb 0.00 in0.0 mm 0.00 in0.0 mm 1.15 in29.2 mm
06:50 PM 82.6°F28.1°C 76.6°F24.8°C 82% Calm Calm 6.0 mph9.7 kmh 29.98 in1015.2 mb 0.00 in0.0 mm 0.00 in0.0 mm 1.15 in29.2 mm
06:55 PM 82.5°F28.1°C 76.5°F24.7°C 82% 8.0 mph E12.9 kmh E 8.0 mph12.9 kmh 29.99 in1015.6 mb 0.00 in0.0 mm 0.00 in0.0 mm 1.15 in29.2 mm
07:00 PM 82.5°F28.1°C 76.8°F24.9°C 83% 3.0 mph ESE4.8 kmh ESE 4.0 mph6.4 kmh 29.98 in1015.2 mb 0.00 in0.0 mm 0.00 in0.0 mm 1.15 in29.2 mm
07:05 PM 82.4°F28.0°C 76.7°F24.8°C 83% 5.0 mph E8.0 kmh E 8.0 mph12.9 kmh 29.98 in1015.2 mb 0.00 in0.0 mm 0.00 in0.0 mm 1.15 in29.2 mm
07:10 PM 82.3°F27.9°C 76.6°F24.8°C 83% Calm Calm 8.0 mph12.9 kmh 29.98 in1015.2 mb 0.00 in0.0 mm 0.00 in0.0 mm 1.15 in29.2 mm
07:15 PM 82.2°F27.9°C 76.5°F24.7°C 83% Calm Calm 8.0 mph12.9 kmh 29.98 in1015.2 mb 0.00 in0.0 mm 0.00 in0.0 mm 1.15 in29.2 mm
07:20 PM 81.9°F27.7°C 76.2°F24.6°C 83% Calm Calm 8.0 mph12.9 kmh 29.98 in1015.2 mb 0.00 in0.0 mm 0.00 in0.0 mm 1.15 in29.2 mm
07:25 PM 81.8°F27.7°C 76.5°F24.7°C 84% Calm Calm 8.0 mph12.9 kmh 29.98 in1015.2 mb 0.00 in0.0 mm 0.00 in0.0 mm 1.15 in29.2 mm
07:30 PM 81.7°F27.6°C 76.4°F24.7°C 84% Calm Calm 8.0 mph12.9 kmh 29.98 in1015.2 mb 0.00 in0.0 mm 0.00 in0.0 mm 1.15 in29.2 mm
07:35 PM 81.6°F27.6°C 75.9°F24.4°C 83% Calm Calm 8.0 mph12.9 kmh 29.98 in1015.2 mb 0.00 in0.0 mm 0.00 in0.0 mm 1.15 in29.2 mm
07:40 PM 81.6°F27.6°C 75.9°F24.4°C 83% 4.0 mph E6.4 kmh E 8.0 mph12.9 kmh 29.99 in1015.6 mb 0.00 in0.0 mm 0.00 in0.0 mm 1.15 in29.2 mm
07:45 PM 81.6°F27.6°C 75.6°F24.2°C 82% 3.0 mph ENE4.8 kmh ENE 8.0 mph12.9 kmh 29.99 in1015.6 mb 0.00 in0.0 mm 0.00 in0.0 mm 1.15 in29.2 mm
07:50 PM 81.7°F27.6°C 75.7°F24.3°C 82% 2.0 mph ENE3.2 kmh ENE 8.0 mph12.9 kmh 29.99 in1015.6 mb 0.00 in0.0 mm 0.00 in0.0 mm 1.15 in29.2 mm
07:55 PM 81.7°F27.6°C 75.7°F24.3°C 82% Calm Calm 8.0 mph12.9 kmh 29.99 in1015.6 mb 0.00 in0.0 mm 0.00 in0.0 mm 1.15 in29.2 mm
08:00 PM 81.7°F27.6°C 75.7°F24.3°C 82% Calm Calm -- 29.98 in1015.2 mb 0.00 in0.0 mm 0.00 in0.0 mm 1.15 in29.2 mm
08:05 PM 81.7°F27.6°C 75.7°F24.3°C 82% Calm Calm -- 30.00 in1015.9 mb 0.00 in0.0 mm 0.00 in0.0 mm 1.15 in29.2 mm
08:10 PM 81.6°F27.6°C 75.6°F24.2°C 82% Calm Calm -- 29.99 in1015.6 mb 0.00 in0.0 mm 0.00 in0.0 mm 1.15 in29.2 mm
08:15 PM 81.5°F27.5°C 75.5°F24.2°C 82% Calm Calm 5.0 mph8.0 kmh 29.99 in1015.6 mb 0.00 in0.0 mm 0.00 in0.0 mm 1.15 in29.2 mm
08:20 PM 81.5°F27.5°C 75.8°F24.3°C 83% Calm Calm 5.0 mph8.0 kmh 29.99 in1015.6 mb 0.00 in0.0 mm 0.00 in0.0 mm 1.15 in29.2 mm
08:25 PM 81.6°F27.6°C 76.3°F24.6°C 84% Calm Calm 5.0 mph8.0 kmh 29.99 in1015.6 mb 0.00 in0.0 mm 0.00 in0.0 mm 1.15 in29.2 mm
08:30 PM 81.5°F27.5°C 76.2°F24.6°C 84% Calm Calm 7.0 mph11.3 kmh 29.99 in1015.6 mb 0.00 in0.0 mm 0.00 in0.0 mm 1.15 in29.2 mm
08:35 PM 81.6°F27.6°C 75.6°F24.2°C 82% Calm Calm 7.0 mph11.3 kmh 30.00 in1015.9 mb 0.00 in0.0 mm 0.00 in0.0 mm 1.15 in29.2 mm
08:40 PM 81.5°F27.5°C 75.5°F24.2°C 82% Calm Calm 7.0 mph11.3 kmh 30.00 in1015.9 mb 0.00 in0.0 mm 0.00 in0.0 mm 1.15 in29.2 mm
08:45 PM 81.5°F27.5°C 75.5°F24.2°C 82% Calm Calm 7.0 mph11.3 kmh 30.00 in1015.9 mb 0.00 in0.0 mm 0.00 in0.0 mm 1.15 in29.2 mm
08:50 PM 81.5°F27.5°C 75.1°F23.9°C 81% Calm Calm 7.0 mph11.3 kmh 30.00 in1015.9 mb 0.00 in0.0 mm 0.00 in0.0 mm 1.15 in29.2 mm
08:55 PM 81.5°F27.5°C 75.1°F23.9°C 81% 2.0 mph NE3.2 kmh NE 7.0 mph11.3 kmh 30.01 in1016.3 mb 0.00 in0.0 mm 0.00 in0.0 mm 1.15 in29.2 mm
09:00 PM 81.4°F27.4°C 75.0°F23.9°C 81% 2.0 mph ENE3.2 kmh ENE 2.0 mph3.2 kmh 30.00 in1015.9 mb 0.00 in0.0 mm 0.00 in0.0 mm 1.15 in29.2 mm
09:05 PM 81.5°F27.5°C 75.1°F23.9°C 81% Calm Calm 4.0 mph6.4 kmh 30.00 in1015.9 mb 0.00 in0.0 mm 0.00 in0.0 mm 1.15 in29.2 mm
09:10 PM 81.4°F27.4°C 75.0°F23.9°C 81% Calm Calm 4.0 mph6.4 kmh 30.00 in1015.9 mb 0.00 in0.0 mm 0.00 in0.0 mm 1.15 in29.2 mm
09:15 PM 81.4°F27.4°C 75.4°F24.1°C 82% Calm Calm 4.0 mph6.4 kmh 30.02 in1016.6 mb 0.00 in0.0 mm 0.00 in0.0 mm 1.15 in29.2 mm
09:20 PM 81.4°F27.4°C 75.7°F24.3°C 83% 3.0 mph NE4.8 kmh NE 5.0 mph8.0 kmh 30.02 in1016.6 mb 0.00 in0.0 mm 0.00 in0.0 mm 1.15 in29.2 mm
09:25 PM 81.4°F27.4°C 74.6°F23.7°C 80% 2.0 mph NE3.2 kmh NE 7.0 mph11.3 kmh 30.02 in1016.6 mb 0.00 in0.0 mm 0.00 in0.0 mm 1.15 in29.2 mm
09:30 PM 81.5°F27.5°C 74.7°F23.7°C 80% Calm Calm 7.0 mph11.3 kmh 30.02 in1016.6 mb 0.00 in0.0 mm 0.00 in0.0 mm 1.15 in29.2 mm
09:35 PM 81.5°F27.5°C 74.7°F23.7°C 80% Calm Calm 7.0 mph11.3 kmh 30.02 in1016.6 mb 0.00 in0.0 mm 0.00 in0.0 mm 1.15 in29.2 mm
09:40 PM 81.5°F27.5°C 74.7°F23.7°C 80% Calm Calm 7.0 mph11.3 kmh 30.02 in1016.6 mb 0.00 in0.0 mm 0.00 in0.0 mm 1.15 in29.2 mm
09:45 PM 81.5°F27.5°C 75.1°F23.9°C 81% Calm Calm 7.0 mph11.3 kmh 30.03 in1016.9 mb 0.00 in0.0 mm 0.00 in0.0 mm 1.15 in29.2 mm
09:50 PM 81.4°F27.4°C 75.0°F23.9°C 81% Calm Calm 7.0 mph11.3 kmh 30.02 in1016.6 mb 0.00 in0.0 mm 0.00 in0.0 mm 1.15 in29.2 mm
09:55 PM 81.4°F27.4°C 75.7°F24.3°C 83% Calm Calm 7.0 mph11.3 kmh 30.02 in1016.6 mb 0.00 in0.0 mm 0.00 in0.0 mm 1.15 in29.2 mm
10:00 PM 81.3°F27.4°C 75.3°F24.1°C 82% Calm Calm -- 30.03 in1016.9 mb 0.00 in0.0 mm 0.00 in0.0 mm 1.15 in29.2 mm
10:05 PM 81.2°F27.3°C 75.2°F24.0°C 82% Calm Calm -- 30.03 in1016.9 mb 0.00 in0.0 mm 0.00 in0.0 mm 1.15 in29.2 mm
10:10 PM 81.1°F27.3°C 75.1°F23.9°C 82% Calm Calm -- 30.02 in1016.6 mb 0.00 in0.0 mm 0.00 in0.0 mm 1.15 in29.2 mm
10:15 PM 81.0°F27.2°C 75.0°F23.9°C 82% Calm Calm -- 30.03 in1016.9 mb 0.00 in0.0 mm 0.00 in0.0 mm 1.15 in29.2 mm
10:20 PM 81.0°F27.2°C 75.4°F24.1°C 83% Calm Calm -- 30.03 in1016.9 mb 0.00 in0.0 mm 0.00 in0.0 mm 1.15 in29.2 mm
10:25 PM 80.9°F27.2°C 75.3°F24.1°C 83% Calm Calm 5.0 mph8.0 kmh 30.02 in1016.6 mb 0.00 in0.0 mm 0.00 in0.0 mm 1.15 in29.2 mm
10:30 PM 80.8°F27.1°C 75.9°F24.4°C 85% Calm Calm 5.0 mph8.0 kmh 30.03 in1016.9 mb 0.00 in0.0 mm 0.00 in0.0 mm 1.15 in29.2 mm
10:35 PM 80.7°F27.1°C 75.1°F23.9°C 83% Calm Calm 5.0 mph8.0 kmh 30.03 in1016.9 mb 0.00 in0.0 mm 0.00 in0.0 mm 1.15 in29.2 mm
10:40 PM 80.7°F27.1°C 75.1°F23.9°C 83% Calm Calm 5.0 mph8.0 kmh 30.03 in1016.9 mb 0.00 in0.0 mm 0.00 in0.0 mm 1.15 in29.2 mm
10:45 PM 80.7°F27.1°C 74.7°F23.7°C 82% Calm Calm 5.0 mph8.0 kmh 30.03 in1016.9 mb 0.00 in0.0 mm 0.00 in0.0 mm 1.15 in29.2 mm
10:50 PM 80.7°F27.1°C 75.1°F23.9°C 83% Calm Calm 5.0 mph8.0 kmh 30.02 in1016.6 mb 0.00 in0.0 mm 0.00 in0.0 mm 1.15 in29.2 mm
10:55 PM 80.6°F27.0°C 74.6°F23.7°C 82% Calm Calm 5.0 mph8.0 kmh 30.02 in1016.6 mb 0.00 in0.0 mm 0.00 in0.0 mm 1.15 in29.2 mm
11:00 PM 80.6°F27.0°C 74.6°F23.7°C 82% Calm Calm -- 30.02 in1016.6 mb 0.00 in0.0 mm 0.00 in0.0 mm 1.15 in29.2 mm
11:05 PM 80.6°F27.0°C 75.0°F23.9°C 83% Calm Calm -- 30.02 in1016.6 mb 0.00 in0.0 mm 0.00 in0.0 mm 1.15 in29.2 mm
11:10 PM 80.6°F27.0°C 75.3°F24.1°C 84% Calm Calm -- 30.03 in1016.9 mb 0.00 in0.0 mm 0.00 in0.0 mm 1.15 in29.2 mm
11:15 PM 80.6°F27.0°C 74.6°F23.7°C 82% Calm Calm -- 30.03 in1016.9 mb 0.00 in0.0 mm 0.00 in0.0 mm 1.15 in29.2 mm
11:20 PM 80.6°F27.0°C 74.6°F23.7°C 82% Calm Calm -- 30.03 in1016.9 mb 0.00 in0.0 mm 0.00 in0.0 mm 1.15 in29.2 mm
11:25 PM 80.5°F26.9°C 74.9°F23.8°C 83% Calm Calm -- 30.03 in1016.9 mb 0.00 in0.0 mm 0.00 in0.0 mm 1.15 in29.2 mm
11:30 PM 80.5°F26.9°C 75.2°F24.0°C 84% Calm Calm -- 30.03 in1016.9 mb 0.00 in0.0 mm 0.00 in0.0 mm 1.15 in29.2 mm
11:35 PM 80.3°F26.8°C 74.7°F23.7°C 83% Calm Calm -- 30.03 in1016.9 mb 0.00 in0.0 mm 0.00 in0.0 mm 1.15 in29.2 mm
11:40 PM 80.2°F26.8°C 74.6°F23.7°C 83% Calm Calm -- 30.03 in1016.9 mb 0.00 in0.0 mm 0.00 in0.0 mm 1.15 in29.2 mm
11:45 PM 80.2°F26.8°C 74.6°F23.7°C 83% Calm Calm -- 30.03 in1016.9 mb 0.00 in0.0 mm 0.00 in0.0 mm 1.15 in29.2 mm
11:50 PM 80.1°F26.7°C 74.5°F23.6°C 83% Calm Calm -- 30.03 in1016.9 mb 0.00 in0.0 mm 0.00 in0.0 mm 1.15 in29.2 mm
11:55 PM 80.1°F26.7°C 74.5°F23.6°C 83% Calm Calm -- 30.03 in1016.9 mb 0.00 in0.0 mm 0.00 in0.0 mm 1.15 in29.2 mm